sensor_id;sensor_type;location;lat;lon;timestamp;temperature;humidity
13336;DHT22;6737;51.480;11.962;2023-05-07T00:00:00;10.90;99.90
13336;DHT22;6737;51.480;11.962;2023-05-07T00:02:26;10.90;99.90
13336;DHT22;6737;51.480;11.962;2023-05-07T00:04:52;10.90;99.90
13336;DHT22;6737;51.480;11.962;2023-05-07T00:07:18;10.90;99.90
13336;DHT22;6737;51.480;11.962;2023-05-07T00:09:44;10.80;99.90
13336;DHT22;6737;51.480;11.962;2023-05-07T00:12:10;10.80;99.90
13336;DHT22;6737;51.480;11.962;2023-05-07T00:14:36;10.70;99.90
13336;DHT22;6737;51.480;11.962;2023-05-07T00:17:01;10.70;99.90
13336;DHT22;6737;51.480;11.962;2023-05-07T00:19:27;10.60;99.90
13336;DHT22;6737;51.480;11.962;2023-05-07T00:21:53;10.50;99.90
13336;DHT22;6737;51.480;11.962;2023-05-07T00:24:19;10.50;99.90
13336;DHT22;6737;51.480;11.962;2023-05-07T00:26:45;10.50;99.90
13336;DHT22;6737;51.480;11.962;2023-05-07T00:29:11;10.50;99.90
13336;DHT22;6737;51.480;11.962;2023-05-07T00:31:37;10.40;99.90
13336;DHT22;6737;51.480;11.962;2023-05-07T00:34:02;10.50;99.90
13336;DHT22;6737;51.480;11.962;2023-05-07T00:36:28;10.50;99.90
13336;DHT22;6737;51.480;11.962;2023-05-07T00:38:54;10.40;99.90
13336;DHT22;6737;51.480;11.962;2023-05-07T00:41:21;10.40;99.90
13336;DHT22;6737;51.480;11.962;2023-05-07T00:43:47;10.40;99.90
13336;DHT22;6737;51.480;11.962;2023-05-07T00:46:13;10.40;99.90
13336;DHT22;6737;51.480;11.962;2023-05-07T00:48:40;10.40;99.90
13336;DHT22;6737;51.480;11.962;2023-05-07T00:51:05;10.50;99.90
13336;DHT22;6737;51.480;11.962;2023-05-07T00:53:31;10.50;99.90
13336;DHT22;6737;51.480;11.962;2023-05-07T00:55:57;10.50;99.90
13336;DHT22;6737;51.480;11.962;2023-05-07T00:58:23;10.40;99.90
13336;DHT22;6737;51.480;11.962;2023-05-07T01:00:50;10.50;99.90
13336;DHT22;6737;51.480;11.962;2023-05-07T01:03:16;10.40;99.90
13336;DHT22;6737;51.480;11.962;2023-05-07T01:05:42;10.40;99.90
13336;DHT22;6737;51.480;11.962;2023-05-07T01:08:09;10.40;99.90
13336;DHT22;6737;51.480;11.962;2023-05-07T01:10:36;10.40;99.90
13336;DHT22;6737;51.480;11.962;2023-05-07T01:13:02;10.40;99.90
13336;DHT22;6737;51.480;11.962;2023-05-07T01:15:28;10.40;99.90
13336;DHT22;6737;51.480;11.962;2023-05-07T01:17:54;10.40;99.90
13336;DHT22;6737;51.480;11.962;2023-05-07T01:20:22;10.40;99.90
13336;DHT22;6737;51.480;11.962;2023-05-07T01:22:49;10.40;99.90
13336;DHT22;6737;51.480;11.962;2023-05-07T01:25:16;10.30;99.90
13336;DHT22;6737;51.480;11.962;2023-05-07T01:27:42;10.40;99.90
13336;DHT22;6737;51.480;11.962;2023-05-07T01:30:08;10.40;99.90
13336;DHT22;6737;51.480;11.962;2023-05-07T01:32:43;10.30;99.90
13336;DHT22;6737;51.480;11.962;2023-05-07T01:35:15;10.30;99.90
13336;DHT22;6737;51.480;11.962;2023-05-07T01:37:42;10.20;99.90
13336;DHT22;6737;51.480;11.962;2023-05-07T01:40:09;10.30;99.90
13336;DHT22;6737;51.480;11.962;2023-05-07T01:42:35;10.30;99.90
13336;DHT22;6737;51.480;11.962;2023-05-07T01:45:01;10.30;99.90
13336;DHT22;6737;51.480;11.962;2023-05-07T01:47:29;10.30;99.90
13336;DHT22;6737;51.480;11.962;2023-05-07T01:49:55;10.30;99.90
13336;DHT22;6737;51.480;11.962;2023-05-07T01:52:21;10.30;99.90
13336;DHT22;6737;51.480;11.962;2023-05-07T01:54:47;10.30;99.90
13336;DHT22;6737;51.480;11.962;2023-05-07T01:57:13;10.30;99.90
13336;DHT22;6737;51.480;11.962;2023-05-07T01:59:39;10.30;99.90
13336;DHT22;6737;51.480;11.962;2023-05-07T02:02:05;10.30;99.90
13336;DHT22;6737;51.480;11.962;2023-05-07T02:04:30;10.30;99.90
13336;DHT22;6737;51.480;11.962;2023-05-07T02:06:57;10.30;99.90
13336;DHT22;6737;51.480;11.962;2023-05-07T02:09:22;10.30;99.90
13336;DHT22;6737;51.480;11.962;2023-05-07T02:11:49;10.30;99.90
13336;DHT22;6737;51.480;11.962;2023-05-07T02:14:14;10.20;99.90
13336;DHT22;6737;51.480;11.962;2023-05-07T02:16:41;10.20;99.90
13336;DHT22;6737;51.480;11.962;2023-05-07T02:19:07;10.30;99.90
13336;DHT22;6737;51.480;11.962;2023-05-07T02:21:33;10.30;99.90
13336;DHT22;6737;51.480;11.962;2023-05-07T02:23:58;10.20;99.90
13336;DHT22;6737;51.480;11.962;2023-05-07T02:26:24;10.20;99.90
13336;DHT22;6737;51.480;11.962;2023-05-07T02:28:51;10.20;99.90
13336;DHT22;6737;51.480;11.962;2023-05-07T02:31:17;10.20;99.90
13336;DHT22;6737;51.480;11.962;2023-05-07T02:33:43;10.20;99.90
13336;DHT22;6737;51.480;11.962;2023-05-07T02:36:11;10.20;99.90
13336;DHT22;6737;51.480;11.962;2023-05-07T02:38:38;10.20;99.90
13336;DHT22;6737;51.480;11.962;2023-05-07T02:41:04;10.20;99.90
13336;DHT22;6737;51.480;11.962;2023-05-07T02:43:29;10.20;99.90
13336;DHT22;6737;51.480;11.962;2023-05-07T02:46:08;10.30;99.90
13336;DHT22;6737;51.480;11.962;2023-05-07T02:48:34;10.30;99.90
13336;DHT22;6737;51.480;11.962;2023-05-07T02:51:02;10.30;99.90
13336;DHT22;6737;51.480;11.962;2023-05-07T02:53:28;10.20;99.90
13336;DHT22;6737;51.480;11.962;2023-05-07T02:55:59;10.20;99.90
13336;DHT22;6737;51.480;11.962;2023-05-07T02:58:25;10.20;99.90
13336;DHT22;6737;51.480;11.962;2023-05-07T03:00:51;10.20;99.90
13336;DHT22;6737;51.480;11.962;2023-05-07T03:03:17;10.20;99.90
13336;DHT22;6737;51.480;11.962;2023-05-07T03:05:43;10.20;99.90
13336;DHT22;6737;51.480;11.962;2023-05-07T03:08:09;10.20;99.90
13336;DHT22;6737;51.480;11.962;2023-05-07T03:10:36;10.20;99.90
13336;DHT22;6737;51.480;11.962;2023-05-07T03:13:02;10.20;99.90
13336;DHT22;6737;51.480;11.962;2023-05-07T03:15:28;10.20;99.90
13336;DHT22;6737;51.480;11.962;2023-05-07T03:17:54;10.10;99.90
13336;DHT22;6737;51.480;11.962;2023-05-07T03:20:20;10.10;99.90
13336;DHT22;6737;51.480;11.962;2023-05-07T03:22:45;10.10;99.90
13336;DHT22;6737;51.480;11.962;2023-05-07T03:25:12;10.10;99.90
13336;DHT22;6737;51.480;11.962;2023-05-07T03:27:38;10.10;99.90
13336;DHT22;6737;51.480;11.962;2023-05-07T03:30:04;10.20;99.90
13336;DHT22;6737;51.480;11.962;2023-05-07T03:32:30;10.30;99.90
13336;DHT22;6737;51.480;11.962;2023-05-07T03:34:56;10.10;99.90
13336;DHT22;6737;51.480;11.962;2023-05-07T03:37:22;10.20;99.90
13336;DHT22;6737;51.480;11.962;2023-05-07T03:39:47;10.20;99.90
13336;DHT22;6737;51.480;11.962;2023-05-07T03:42:14;10.20;99.90
13336;DHT22;6737;51.480;11.962;2023-05-07T03:44:40;10.20;99.90
13336;DHT22;6737;51.480;11.962;2023-05-07T03:47:06;10.10;99.90
13336;DHT22;6737;51.480;11.962;2023-05-07T03:49:32;10.00;99.90
13336;DHT22;6737;51.480;11.962;2023-05-07T03:51:57;10.00;99.90
13336;DHT22;6737;51.480;11.962;2023-05-07T03:54:23;10.10;99.90
13336;DHT22;6737;51.480;11.962;2023-05-07T03:56:49;10.10;99.90
13336;DHT22;6737;51.480;11.962;2023-05-07T03:59:14;10.10;99.90
13336;DHT22;6737;51.480;11.962;2023-05-07T04:01:40;10.10;99.90
13336;DHT22;6737;51.480;11.962;2023-05-07T04:04:06;10.10;99.90
13336;DHT22;6737;51.480;11.962;2023-05-07T04:06:32;10.00;99.90
13336;DHT22;6737;51.480;11.962;2023-05-07T04:08:58;10.00;99.90
13336;DHT22;6737;51.480;11.962;2023-05-07T04:11:24;10.10;99.90
13336;DHT22;6737;51.480;11.962;2023-05-07T04:13:50;10.00;99.90
13336;DHT22;6737;51.480;11.962;2023-05-07T04:16:16;10.00;99.90
13336;DHT22;6737;51.480;11.962;2023-05-07T04:18:41;10.00;99.90
13336;DHT22;6737;51.480;11.962;2023-05-07T04:21:18;10.00;99.90
13336;DHT22;6737;51.480;11.962;2023-05-07T04:23:45;10.00;99.90
13336;DHT22;6737;51.480;11.962;2023-05-07T04:26:11;10.10;99.90
13336;DHT22;6737;51.480;11.962;2023-05-07T04:28:38;10.10;99.90
13336;DHT22;6737;51.480;11.962;2023-05-07T04:31:05;10.10;99.90
13336;DHT22;6737;51.480;11.962;2023-05-07T04:33:31;10.10;99.90
13336;DHT22;6737;51.480;11.962;2023-05-07T04:35:57;10.10;99.90
13336;DHT22;6737;51.480;11.962;2023-05-07T04:38:23;10.10;99.90
13336;DHT22;6737;51.480;11.962;2023-05-07T04:40:49;10.10;99.90
13336;DHT22;6737;51.480;11.962;2023-05-07T04:43:15;10.20;99.90
13336;DHT22;6737;51.480;11.962;2023-05-07T04:45:41;10.10;99.90
13336;DHT22;6737;51.480;11.962;2023-05-07T04:48:10;10.20;99.90
13336;DHT22;6737;51.480;11.962;2023-05-07T04:50:36;10.10;99.90
13336;DHT22;6737;51.480;11.962;2023-05-07T04:53:02;10.10;99.90
13336;DHT22;6737;51.480;11.962;2023-05-07T04:55:28;10.10;99.90
13336;DHT22;6737;51.480;11.962;2023-05-07T04:57:54;10.00;99.90
13336;DHT22;6737;51.480;11.962;2023-05-07T05:00:20;10.00;99.90
13336;DHT22;6737;51.480;11.962;2023-05-07T05:02:46;10.10;99.90
13336;DHT22;6737;51.480;11.962;2023-05-07T05:05:11;10.10;99.90
13336;DHT22;6737;51.480;11.962;2023-05-07T05:07:37;10.10;99.90
13336;DHT22;6737;51.480;11.962;2023-05-07T05:10:05;10.10;99.90
13336;DHT22;6737;51.480;11.962;2023-05-07T05:12:31;10.20;99.90
13336;DHT22;6737;51.480;11.962;2023-05-07T05:14:57;10.20;99.90
13336;DHT22;6737;51.480;11.962;2023-05-07T05:17:23;10.30;99.90
13336;DHT22;6737;51.480;11.962;2023-05-07T05:19:48;10.30;99.90
13336;DHT22;6737;51.480;11.962;2023-05-07T05:22:14;10.30;99.90
13336;DHT22;6737;51.480;11.962;2023-05-07T05:24:40;10.30;99.90
13336;DHT22;6737;51.480;11.962;2023-05-07T05:27:06;10.30;99.90
13336;DHT22;6737;51.480;11.962;2023-05-07T05:29:32;10.30;99.90
13336;DHT22;6737;51.480;11.962;2023-05-07T05:31:57;10.30;99.90
13336;DHT22;6737;51.480;11.962;2023-05-07T05:34:23;10.20;99.90
13336;DHT22;6737;51.480;11.962;2023-05-07T05:36:49;10.30;99.90
13336;DHT22;6737;51.480;11.962;2023-05-07T05:39:15;10.30;99.90
13336;DHT22;6737;51.480;11.962;2023-05-07T05:41:40;10.30;99.90
13336;DHT22;6737;51.480;11.962;2023-05-07T05:44:06;10.30;99.90
13336;DHT22;6737;51.480;11.962;2023-05-07T05:46:32;10.20;99.90
13336;DHT22;6737;51.480;11.962;2023-05-07T05:48:57;10.20;99.90
13336;DHT22;6737;51.480;11.962;2023-05-07T05:51:23;10.20;99.90
13336;DHT22;6737;51.480;11.962;2023-05-07T05:53:49;10.20;99.90
13336;DHT22;6737;51.480;11.962;2023-05-07T05:56:15;10.20;99.90
13336;DHT22;6737;51.480;11.962;2023-05-07T05:58:41;10.20;99.90
13336;DHT22;6737;51.480;11.962;2023-05-07T06:01:07;10.30;99.90
13336;DHT22;6737;51.480;11.962;2023-05-07T06:03:33;10.30;99.90
13336;DHT22;6737;51.480;11.962;2023-05-07T06:05:59;10.20;99.90
13336;DHT22;6737;51.480;11.962;2023-05-07T06:08:28;10.30;99.90
13336;DHT22;6737;51.480;11.962;2023-05-07T06:10:55;10.40;99.90
13336;DHT22;6737;51.480;11.962;2023-05-07T06:13:20;10.40;99.90
13336;DHT22;6737;51.480;11.962;2023-05-07T06:15:46;10.40;99.90
13336;DHT22;6737;51.480;11.962;2023-05-07T06:18:12;10.40;99.90
13336;DHT22;6737;51.480;11.962;2023-05-07T06:20:38;10.40;99.90
13336;DHT22;6737;51.480;11.962;2023-05-07T06:23:03;10.40;99.90
13336;DHT22;6737;51.480;11.962;2023-05-07T06:25:29;10.40;99.90
13336;DHT22;6737;51.480;11.962;2023-05-07T06:27:55;10.40;99.90
13336;DHT22;6737;51.480;11.962;2023-05-07T06:30:21;10.40;99.90
13336;DHT22;6737;51.480;11.962;2023-05-07T06:32:46;10.50;99.90
13336;DHT22;6737;51.480;11.962;2023-05-07T06:35:12;10.40;99.90
13336;DHT22;6737;51.480;11.962;2023-05-07T06:37:38;10.40;99.90
13336;DHT22;6737;51.480;11.962;2023-05-07T06:40:08;10.40;99.90
13336;DHT22;6737;51.480;11.962;2023-05-07T06:42:35;10.40;99.90
13336;DHT22;6737;51.480;11.962;2023-05-07T06:45:01;10.40;99.90
13336;DHT22;6737;51.480;11.962;2023-05-07T06:47:28;10.40;99.90
13336;DHT22;6737;51.480;11.962;2023-05-07T06:49:54;10.40;99.90
13336;DHT22;6737;51.480;11.962;2023-05-07T06:52:19;10.50;99.90
13336;DHT22;6737;51.480;11.962;2023-05-07T06:54:45;10.50;99.90
13336;DHT22;6737;51.480;11.962;2023-05-07T06:57:11;10.50;99.90
13336;DHT22;6737;51.480;11.962;2023-05-07T06:59:37;10.50;99.90
13336;DHT22;6737;51.480;11.962;2023-05-07T07:02:02;10.40;99.90
13336;DHT22;6737;51.480;11.962;2023-05-07T07:04:28;10.50;99.90
13336;DHT22;6737;51.480;11.962;2023-05-07T07:06:54;10.50;99.90
13336;DHT22;6737;51.480;11.962;2023-05-07T07:09:20;10.50;99.90
13336;DHT22;6737;51.480;11.962;2023-05-07T07:11:46;10.50;99.90
13336;DHT22;6737;51.480;11.962;2023-05-07T07:14:11;10.50;99.90
13336;DHT22;6737;51.480;11.962;2023-05-07T07:16:38;10.60;99.90
13336;DHT22;6737;51.480;11.962;2023-05-07T07:19:04;10.70;99.90
13336;DHT22;6737;51.480;11.962;2023-05-07T07:21:30;10.70;99.90
13336;DHT22;6737;51.480;11.962;2023-05-07T07:23:56;10.70;99.90
13336;DHT22;6737;51.480;11.962;2023-05-07T07:26:21;10.70;99.90
13336;DHT22;6737;51.480;11.962;2023-05-07T07:28:47;10.70;99.90
13336;DHT22;6737;51.480;11.962;2023-05-07T07:31:13;10.70;99.90
13336;DHT22;6737;51.480;11.962;2023-05-07T07:33:39;10.70;99.90
13336;DHT22;6737;51.480;11.962;2023-05-07T07:36:06;10.70;99.90
13336;DHT22;6737;51.480;11.962;2023-05-07T07:38:32;10.70;99.90
13336;DHT22;6737;51.480;11.962;2023-05-07T07:40:58;10.70;99.90
13336;DHT22;6737;51.480;11.962;2023-05-07T07:43:24;10.70;99.90
13336;DHT22;6737;51.480;11.962;2023-05-07T07:45:50;10.70;99.90
13336;DHT22;6737;51.480;11.962;2023-05-07T07:48:15;10.70;99.90
13336;DHT22;6737;51.480;11.962;2023-05-07T07:50:41;10.70;99.90
13336;DHT22;6737;51.480;11.962;2023-05-07T07:53:07;10.70;99.90
13336;DHT22;6737;51.480;11.962;2023-05-07T07:55:41;10.70;99.90
13336;DHT22;6737;51.480;11.962;2023-05-07T07:58:06;10.70;99.90
13336;DHT22;6737;51.480;11.962;2023-05-07T08:00:32;10.70;99.90
13336;DHT22;6737;51.480;11.962;2023-05-07T08:02:58;10.70;99.90
13336;DHT22;6737;51.480;11.962;2023-05-07T08:05:24;10.70;99.90
13336;DHT22;6737;51.480;11.962;2023-05-07T08:07:50;10.70;99.90
13336;DHT22;6737;51.480;11.962;2023-05-07T08:10:18;10.80;99.90
13336;DHT22;6737;51.480;11.962;2023-05-07T08:12:48;10.90;99.90
13336;DHT22;6737;51.480;11.962;2023-05-07T08:15:15;10.90;99.90
13336;DHT22;6737;51.480;11.962;2023-05-07T08:17:41;10.90;99.90
13336;DHT22;6737;51.480;11.962;2023-05-07T08:20:07;10.90;99.90
13336;DHT22;6737;51.480;11.962;2023-05-07T08:22:36;11.00;99.90
13336;DHT22;6737;51.480;11.962;2023-05-07T08:25:03;11.00;99.90
13336;DHT22;6737;51.480;11.962;2023-05-07T08:27:29;11.00;99.90
13336;DHT22;6737;51.480;11.962;2023-05-07T08:29:54;11.00;99.90
13336;DHT22;6737;51.480;11.962;2023-05-07T08:32:21;10.90;99.90
13336;DHT22;6737;51.480;11.962;2023-05-07T08:34:47;10.90;99.90
13336;DHT22;6737;51.480;11.962;2023-05-07T08:37:13;11.00;99.90
13336;DHT22;6737;51.480;11.962;2023-05-07T08:39:39;11.00;99.90
13336;DHT22;6737;51.480;11.962;2023-05-07T08:42:07;11.00;99.90
13336;DHT22;6737;51.480;11.962;2023-05-07T08:44:34;11.00;99.90
13336;DHT22;6737;51.480;11.962;2023-05-07T08:47:06;11.00;99.90
13336;DHT22;6737;51.480;11.962;2023-05-07T08:49:33;11.00;99.90
13336;DHT22;6737;51.480;11.962;2023-05-07T08:51:59;11.20;99.90
13336;DHT22;6737;51.480;11.962;2023-05-07T08:54:26;11.20;99.90
13336;DHT22;6737;51.480;11.962;2023-05-07T08:56:53;11.10;99.90
13336;DHT22;6737;51.480;11.962;2023-05-07T08:59:18;11.10;99.90
13336;DHT22;6737;51.480;11.962;2023-05-07T09:01:44;11.10;99.90
13336;DHT22;6737;51.480;11.962;2023-05-07T09:04:10;11.20;99.90
13336;DHT22;6737;51.480;11.962;2023-05-07T09:06:38;11.10;99.90
13336;DHT22;6737;51.480;11.962;2023-05-07T09:09:07;11.10;99.90
13336;DHT22;6737;51.480;11.962;2023-05-07T09:11:33;11.10;99.90
13336;DHT22;6737;51.480;11.962;2023-05-07T09:13:59;11.10;99.90
13336;DHT22;6737;51.480;11.962;2023-05-07T09:16:28;11.10;99.90
13336;DHT22;6737;51.480;11.962;2023-05-07T09:18:55;11.10;99.90
13336;DHT22;6737;51.480;11.962;2023-05-07T09:21:21;11.20;99.90
13336;DHT22;6737;51.480;11.962;2023-05-07T09:23:52;11.20;99.90
13336;DHT22;6737;51.480;11.962;2023-05-07T09:26:19;11.20;99.90
13336;DHT22;6737;51.480;11.962;2023-05-07T09:28:46;11.30;99.90
13336;DHT22;6737;51.480;11.962;2023-05-07T09:31:12;11.30;99.90
13336;DHT22;6737;51.480;11.962;2023-05-07T09:33:39;11.30;99.90
13336;DHT22;6737;51.480;11.962;2023-05-07T09:36:06;11.40;99.90
13336;DHT22;6737;51.480;11.962;2023-05-07T09:38:37;11.30;99.90
13336;DHT22;6737;51.480;11.962;2023-05-07T09:41:13;11.30;99.90
13336;DHT22;6737;51.480;11.962;2023-05-07T09:43:40;11.30;99.90
13336;DHT22;6737;51.480;11.962;2023-05-07T09:46:12;11.40;99.90
13336;DHT22;6737;51.480;11.962;2023-05-07T09:48:41;11.40;99.90
13336;DHT22;6737;51.480;11.962;2023-05-07T09:51:24;11.40;99.90
13336;DHT22;6737;51.480;11.962;2023-05-07T09:53:53;11.40;99.90
13336;DHT22;6737;51.480;11.962;2023-05-07T09:56:19;11.40;99.90
13336;DHT22;6737;51.480;11.962;2023-05-07T09:58:46;11.40;99.90
13336;DHT22;6737;51.480;11.962;2023-05-07T10:01:13;11.40;99.90
13336;DHT22;6737;51.480;11.962;2023-05-07T10:03:42;11.40;99.90
13336;DHT22;6737;51.480;11.962;2023-05-07T10:06:09;11.40;99.90
13336;DHT22;6737;51.480;11.962;2023-05-07T10:08:37;11.40;99.90
13336;DHT22;6737;51.480;11.962;2023-05-07T10:11:04;11.40;99.90
13336;DHT22;6737;51.480;11.962;2023-05-07T10:13:33;11.40;99.90
13336;DHT22;6737;51.480;11.962;2023-05-07T10:16:03;11.40;99.90
13336;DHT22;6737;51.480;11.962;2023-05-07T10:18:33;11.50;99.90
13336;DHT22;6737;51.480;11.962;2023-05-07T10:21:11;11.50;99.90
13336;DHT22;6737;51.480;11.962;2023-05-07T10:23:38;11.50;99.90
13336;DHT22;6737;51.480;11.962;2023-05-07T10:26:06;11.50;99.90
13336;DHT22;6737;51.480;11.962;2023-05-07T10:28:38;11.50;99.90
13336;DHT22;6737;51.480;11.962;2023-05-07T10:33:42;11.40;99.90
13336;DHT22;6737;51.480;11.962;2023-05-07T10:36:11;11.50;99.90
13336;DHT22;6737;51.480;11.962;2023-05-07T10:38:37;11.50;99.90
13336;DHT22;6737;51.480;11.962;2023-05-07T10:41:03;11.40;99.90
13336;DHT22;6737;51.480;11.962;2023-05-07T10:43:41;11.40;99.90
13336;DHT22;6737;51.480;11.962;2023-05-07T10:46:11;11.40;99.90
13336;DHT22;6737;51.480;11.962;2023-05-07T10:51:28;11.40;99.90
13336;DHT22;6737;51.480;11.962;2023-05-07T10:56:41;11.50;99.90
13336;DHT22;6737;51.480;11.962;2023-05-07T11:01:58;11.50;99.90
13336;DHT22;6737;51.480;11.962;2023-05-07T11:04:24;11.50;99.90
13336;DHT22;6737;51.480;11.962;2023-05-07T11:12:17;11.70;99.90
13336;DHT22;6737;51.480;11.962;2023-05-07T11:14:43;11.70;99.90
13336;DHT22;6737;51.480;11.962;2023-05-07T11:17:10;11.70;99.90
13336;DHT22;6737;51.480;11.962;2023-05-07T11:20:03;11.70;99.90
13336;DHT22;6737;51.480;11.962;2023-05-07T11:25:03;11.80;99.90
13336;DHT22;6737;51.480;11.962;2023-05-07T11:27:29;11.80;99.90
13336;DHT22;6737;51.480;11.962;2023-05-07T11:29:56;11.80;99.90
13336;DHT22;6737;51.480;11.962;2023-05-07T11:32:32;11.80;99.90
13336;DHT22;6737;51.480;11.962;2023-05-07T11:34:59;11.80;99.90
13336;DHT22;6737;51.480;11.962;2023-05-07T11:37:26;11.80;99.90
13336;DHT22;6737;51.480;11.962;2023-05-07T11:40:07;11.90;99.90
13336;DHT22;6737;51.480;11.962;2023-05-07T11:42:35;11.90;99.90
13336;DHT22;6737;51.480;11.962;2023-05-07T11:45:01;11.90;99.90
13336;DHT22;6737;51.480;11.962;2023-05-07T11:47:30;11.90;99.90
13336;DHT22;6737;51.480;11.962;2023-05-07T11:49:56;12.00;99.90
13336;DHT22;6737;51.480;11.962;2023-05-07T11:52:24;12.00;99.90
13336;DHT22;6737;51.480;11.962;2023-05-07T11:54:51;12.00;99.90
13336;DHT22;6737;51.480;11.962;2023-05-07T11:57:18;12.10;99.90
13336;DHT22;6737;51.480;11.962;2023-05-07T11:59:44;12.10;99.90
13336;DHT22;6737;51.480;11.962;2023-05-07T12:02:10;12.10;99.90
13336;DHT22;6737;51.480;11.962;2023-05-07T12:04:39;12.10;99.90
13336;DHT22;6737;51.480;11.962;2023-05-07T12:07:05;12.10;99.90
13336;DHT22;6737;51.480;11.962;2023-05-07T12:09:33;12.10;99.90
13336;DHT22;6737;51.480;11.962;2023-05-07T12:12:05;12.10;99.90
13336;DHT22;6737;51.480;11.962;2023-05-07T12:14:31;12.10;99.90
13336;DHT22;6737;51.480;11.962;2023-05-07T12:17:01;12.10;99.90
13336;DHT22;6737;51.480;11.962;2023-05-07T12:19:31;12.10;99.90
13336;DHT22;6737;51.480;11.962;2023-05-07T12:21:57;12.10;99.90
13336;DHT22;6737;51.480;11.962;2023-05-07T12:24:23;12.20;99.90
13336;DHT22;6737;51.480;11.962;2023-05-07T12:26:49;12.20;99.90
13336;DHT22;6737;51.480;11.962;2023-05-07T12:29:15;12.20;99.90
13336;DHT22;6737;51.480;11.962;2023-05-07T12:31:43;12.30;99.90
13336;DHT22;6737;51.480;11.962;2023-05-07T12:34:12;12.30;99.90
13336;DHT22;6737;51.480;11.962;2023-05-07T12:36:39;12.20;99.90
13336;DHT22;6737;51.480;11.962;2023-05-07T12:39:08;12.20;99.90
13336;DHT22;6737;51.480;11.962;2023-05-07T12:41:54;12.20;99.90
13336;DHT22;6737;51.480;11.962;2023-05-07T12:44:24;12.30;99.90
13336;DHT22;6737;51.480;11.962;2023-05-07T12:46:51;12.30;99.90
13336;DHT22;6737;51.480;11.962;2023-05-07T12:49:18;12.40;99.90
13336;DHT22;6737;51.480;11.962;2023-05-07T12:51:44;12.30;99.90
13336;DHT22;6737;51.480;11.962;2023-05-07T12:54:12;12.40;99.90
13336;DHT22;6737;51.480;11.962;2023-05-07T12:56:38;12.30;99.90
13336;DHT22;6737;51.480;11.962;2023-05-07T12:59:04;12.30;99.90
13336;DHT22;6737;51.480;11.962;2023-05-07T13:01:30;12.20;99.90
13336;DHT22;6737;51.480;11.962;2023-05-07T13:04:00;12.20;99.90
13336;DHT22;6737;51.480;11.962;2023-05-07T13:06:26;12.30;99.90
13336;DHT22;6737;51.480;11.962;2023-05-07T13:08:53;12.30;99.90
13336;DHT22;6737;51.480;11.962;2023-05-07T13:11:18;12.30;99.90
13336;DHT22;6737;51.480;11.962;2023-05-07T13:13:44;12.30;99.90
13336;DHT22;6737;51.480;11.962;2023-05-07T13:16:11;12.50;99.90
13336;DHT22;6737;51.480;11.962;2023-05-07T13:18:38;12.50;99.90
13336;DHT22;6737;51.480;11.962;2023-05-07T13:21:04;12.60;99.90
13336;DHT22;6737;51.480;11.962;2023-05-07T13:23:30;12.50;99.90
13336;DHT22;6737;51.480;11.962;2023-05-07T13:25:56;12.50;99.90
13336;DHT22;6737;51.480;11.962;2023-05-07T13:28:23;12.50;99.90
13336;DHT22;6737;51.480;11.962;2023-05-07T13:30:50;12.50;99.90
13336;DHT22;6737;51.480;11.962;2023-05-07T13:33:18;12.60;99.90
13336;DHT22;6737;51.480;11.962;2023-05-07T13:35:44;12.60;99.90
13336;DHT22;6737;51.480;11.962;2023-05-07T13:38:10;12.60;99.90
13336;DHT22;6737;51.480;11.962;2023-05-07T13:40:36;12.70;99.90
13336;DHT22;6737;51.480;11.962;2023-05-07T13:43:01;12.80;99.90
13336;DHT22;6737;51.480;11.962;2023-05-07T13:45:30;13.00;99.90
13336;DHT22;6737;51.480;11.962;2023-05-07T13:47:57;13.00;99.90
13336;DHT22;6737;51.480;11.962;2023-05-07T13:50:23;12.90;99.90
13336;DHT22;6737;51.480;11.962;2023-05-07T13:52:49;13.00;99.90
13336;DHT22;6737;51.480;11.962;2023-05-07T13:55:18;13.00;99.90
13336;DHT22;6737;51.480;11.962;2023-05-07T13:57:44;13.00;99.90
13336;DHT22;6737;51.480;11.962;2023-05-07T14:00:11;13.00;99.90
13336;DHT22;6737;51.480;11.962;2023-05-07T14:02:37;13.00;99.90
13336;DHT22;6737;51.480;11.962;2023-05-07T14:05:03;13.00;99.90
13336;DHT22;6737;51.480;11.962;2023-05-07T14:07:29;13.10;99.90
13336;DHT22;6737;51.480;11.962;2023-05-07T14:09:55;13.10;99.90
13336;DHT22;6737;51.480;11.962;2023-05-07T14:12:21;13.00;99.90
13336;DHT22;6737;51.480;11.962;2023-05-07T14:14:46;13.00;99.90
13336;DHT22;6737;51.480;11.962;2023-05-07T14:17:12;13.00;99.90
13336;DHT22;6737;51.480;11.962;2023-05-07T14:19:38;13.00;99.90
13336;DHT22;6737;51.480;11.962;2023-05-07T14:22:04;13.10;99.90
13336;DHT22;6737;51.480;11.962;2023-05-07T14:24:30;13.10;99.90
13336;DHT22;6737;51.480;11.962;2023-05-07T14:26:56;13.10;99.90
13336;DHT22;6737;51.480;11.962;2023-05-07T14:29:21;13.10;99.90
13336;DHT22;6737;51.480;11.962;2023-05-07T14:31:48;12.90;99.90
13336;DHT22;6737;51.480;11.962;2023-05-07T14:34:14;13.00;99.90
13336;DHT22;6737;51.480;11.962;2023-05-07T14:36:40;12.90;99.90
13336;DHT22;6737;51.480;11.962;2023-05-07T14:39:05;12.90;99.90
13336;DHT22;6737;51.480;11.962;2023-05-07T14:41:31;13.00;99.90
13336;DHT22;6737;51.480;11.962;2023-05-07T14:43:58;13.00;99.90
13336;DHT22;6737;51.480;11.962;2023-05-07T14:46:24;13.10;99.90
13336;DHT22;6737;51.480;11.962;2023-05-07T14:48:51;13.10;99.90
13336;DHT22;6737;51.480;11.962;2023-05-07T14:51:17;13.10;99.90
13336;DHT22;6737;51.480;11.962;2023-05-07T14:53:42;13.00;99.90
13336;DHT22;6737;51.480;11.962;2023-05-07T14:56:09;13.00;99.90
13336;DHT22;6737;51.480;11.962;2023-05-07T14:58:34;13.00;99.90
13336;DHT22;6737;51.480;11.962;2023-05-07T15:01:01;13.00;99.90
13336;DHT22;6737;51.480;11.962;2023-05-07T15:03:27;12.90;99.90
13336;DHT22;6737;51.480;11.962;2023-05-07T15:05:53;13.00;99.90
13336;DHT22;6737;51.480;11.962;2023-05-07T15:08:19;13.00;99.90
13336;DHT22;6737;51.480;11.962;2023-05-07T15:10:45;13.00;99.90
13336;DHT22;6737;51.480;11.962;2023-05-07T15:13:11;13.00;99.90
13336;DHT22;6737;51.480;11.962;2023-05-07T15:15:40;13.00;99.90
13336;DHT22;6737;51.480;11.962;2023-05-07T15:18:06;13.00;99.90
13336;DHT22;6737;51.480;11.962;2023-05-07T15:20:32;13.00;99.90
13336;DHT22;6737;51.480;11.962;2023-05-07T15:22:58;13.00;99.90
13336;DHT22;6737;51.480;11.962;2023-05-07T15:25:24;13.00;99.90
13336;DHT22;6737;51.480;11.962;2023-05-07T15:27:49;13.00;99.90
13336;DHT22;6737;51.480;11.962;2023-05-07T15:30:15;13.00;99.90
13336;DHT22;6737;51.480;11.962;2023-05-07T15:32:42;13.00;99.90
13336;DHT22;6737;51.480;11.962;2023-05-07T15:35:08;13.00;99.90
13336;DHT22;6737;51.480;11.962;2023-05-07T15:37:34;13.10;99.90
13336;DHT22;6737;51.480;11.962;2023-05-07T15:40:00;13.10;99.90
13336;DHT22;6737;51.480;11.962;2023-05-07T15:42:30;13.10;99.90
13336;DHT22;6737;51.480;11.962;2023-05-07T15:44:56;13.00;99.90